sensor_id;sensor_type;location;lat;lon;timestamp;temperature;humidity
64743;HTU21D;51177;45.018;38.982;2022-09-03T00:00:53;23.41;41.66
64743;HTU21D;51177;45.018;38.982;2022-09-03T00:06:15;23.34;41.65
64743;HTU21D;51177;45.018;38.982;2022-09-03T00:08:47;23.31;41.62
64743;HTU21D;51177;45.018;38.982;2022-09-03T00:11:19;23.28;41.62
64743;HTU21D;51177;45.018;38.982;2022-09-03T00:13:51;23.29;41.62
64743;HTU21D;51177;45.018;38.982;2022-09-03T00:16:20;23.24;41.58
64743;HTU21D;51177;45.018;38.982;2022-09-03T00:18:49;23.21;41.61
64743;HTU21D;51177;45.018;38.982;2022-09-03T00:21:29;23.17;41.62
64743;HTU21D;51177;45.018;38.982;2022-09-03T00:23:57;23.13;41.62
64743;HTU21D;51177;45.018;38.982;2022-09-03T00:26:26;23.14;41.55
64743;HTU21D;51177;45.018;38.982;2022-09-03T00:28:55;23.12;41.53
64743;HTU21D;51177;45.018;38.982;2022-09-03T00:31:30;23.09;41.55
64743;HTU21D;51177;45.018;38.982;2022-09-03T00:34:03;23.05;41.55
64743;HTU21D;51177;45.018;38.982;2022-09-03T00:36:34;23.03;41.55
64743;HTU21D;51177;45.018;38.982;2022-09-03T00:39:16;23.05;41.51
64743;HTU21D;51177;45.018;38.982;2022-09-03T00:52:20;22.92;41.48
64743;HTU21D;51177;45.018;38.982;2022-09-03T00:55:00;22.87;41.48
64743;HTU21D;51177;45.018;38.982;2022-09-03T00:57:36;22.85;41.49
64743;HTU21D;51177;45.018;38.982;2022-09-03T01:00:11;22.85;41.47
64743;HTU21D;51177;45.018;38.982;2022-09-03T01:07:48;22.86;41.31
64743;HTU21D;51177;45.018;38.982;2022-09-03T01:10:30;22.82;41.32
64743;HTU21D;51177;45.018;38.982;2022-09-03T01:13:08;22.81;41.32
64743;HTU21D;51177;45.018;38.982;2022-09-03T01:16:20;22.81;41.29
64743;HTU21D;51177;45.018;38.982;2022-09-03T01:28:54;22.72;41.30
64743;HTU21D;51177;45.018;38.982;2022-09-03T01:34:00;22.71;41.23
64743;HTU21D;51177;45.018;38.982;2022-09-03T01:39:02;22.58;41.33
64743;HTU21D;51177;45.018;38.982;2022-09-03T01:41:47;22.54;41.39
64743;HTU21D;51177;45.018;38.982;2022-09-03T01:47:22;22.54;41.35
64743;HTU21D;51177;45.018;38.982;2022-09-03T01:50:29;22.63;41.19
64743;HTU21D;51177;45.018;38.982;2022-09-03T01:55:20;22.70;41.04
64743;HTU21D;51177;45.018;38.982;2022-09-03T02:00:21;22.61;41.20
64743;HTU21D;51177;45.018;38.982;2022-09-03T02:02:50;22.60;41.17
64743;HTU21D;51177;45.018;38.982;2022-09-03T02:05:22;22.55;41.21
64743;HTU21D;51177;45.018;38.982;2022-09-03T02:07:56;22.53;41.22
64743;HTU21D;51177;45.018;38.982;2022-09-03T02:10:28;22.50;41.27
64743;HTU21D;51177;45.018;38.982;2022-09-03T02:12:58;22.50;41.26
64743;HTU21D;51177;45.018;38.982;2022-09-03T02:15:25;22.48;41.26
64743;HTU21D;51177;45.018;38.982;2022-09-03T02:17:54;22.47;41.26
64743;HTU21D;51177;45.018;38.982;2022-09-03T02:20:23;22.43;41.30
64743;HTU21D;51177;45.018;38.982;2022-09-03T02:22:51;22.42;41.29
64743;HTU21D;51177;45.018;38.982;2022-09-03T02:25:18;22.38;41.33
64743;HTU21D;51177;45.018;38.982;2022-09-03T02:27:46;22.38;41.29
64743;HTU21D;51177;45.018;38.982;2022-09-03T02:30:12;22.39;41.28
64743;HTU21D;51177;45.018;38.982;2022-09-03T02:32:38;22.37;41.29
64743;HTU21D;51177;45.018;38.982;2022-09-03T02:35:05;22.32;41.42
64743;HTU21D;51177;45.018;38.982;2022-09-03T02:37:31;22.32;41.43
64743;HTU21D;51177;45.018;38.982;2022-09-03T02:39:57;22.33;41.45
64743;HTU21D;51177;45.018;38.982;2022-09-03T02:42:23;22.29;41.52
64743;HTU21D;51177;45.018;38.982;2022-09-03T02:44:53;22.31;41.50
64743;HTU21D;51177;45.018;38.982;2022-09-03T02:47:21;22.28;41.56
64743;HTU21D;51177;45.018;38.982;2022-09-03T02:49:48;22.24;41.58
64743;HTU21D;51177;45.018;38.982;2022-09-03T02:52:14;22.24;41.68
64743;HTU21D;51177;45.018;38.982;2022-09-03T02:54:40;22.26;41.58
64743;HTU21D;51177;45.018;38.982;2022-09-03T02:57:07;22.24;41.62
64743;HTU21D;51177;45.018;38.982;2022-09-03T02:59:34;22.23;41.65
64743;HTU21D;51177;45.018;38.982;2022-09-03T03:02:01;22.22;41.76
64743;HTU21D;51177;45.018;38.982;2022-09-03T03:07:19;22.28;41.71
64743;HTU21D;51177;45.018;38.982;2022-09-03T03:09:45;22.33;41.71
64743;HTU21D;51177;45.018;38.982;2022-09-03T03:12:11;22.29;41.81
64743;HTU21D;51177;45.018;38.982;2022-09-03T03:14:37;22.28;41.88
64743;HTU21D;51177;45.018;38.982;2022-09-03T03:17:03;22.31;41.95
64743;HTU21D;51177;45.018;38.982;2022-09-03T03:19:29;22.36;42.10
64743;HTU21D;51177;45.018;38.982;2022-09-03T03:21:56;22.43;41.82
64743;HTU21D;51177;45.018;38.982;2022-09-03T03:24:22;22.47;41.81
64743;HTU21D;51177;45.018;38.982;2022-09-03T03:26:47;22.54;41.70
64743;HTU21D;51177;45.018;38.982;2022-09-03T03:29:14;22.68;41.56
64743;HTU21D;51177;45.018;38.982;2022-09-03T03:31:42;22.85;41.38
64743;HTU21D;51177;45.018;38.982;2022-09-03T03:34:08;23.06;41.29
64743;HTU21D;51177;45.018;38.982;2022-09-03T03:36:35;23.17;41.50
64743;HTU21D;51177;45.018;38.982;2022-09-03T03:39:01;23.25;41.45
64743;HTU21D;51177;45.018;38.982;2022-09-03T03:41:30;23.35;41.29
64743;HTU21D;51177;45.018;38.982;2022-09-03T03:44:00;23.41;41.16
64743;HTU21D;51177;45.018;38.982;2022-09-03T03:46:33;23.51;41.06
64743;HTU21D;51177;45.018;38.982;2022-09-03T03:49:00;23.49;41.04
64743;HTU21D;51177;45.018;38.982;2022-09-03T03:51:26;23.28;41.54
64743;HTU21D;51177;45.018;38.982;2022-09-03T03:53:54;23.17;41.62
64743;HTU21D;51177;45.018;38.982;2022-09-03T03:56:21;23.09;41.77
64743;HTU21D;51177;45.018;38.982;2022-09-03T03:58:47;23.06;41.71
64743;HTU21D;51177;45.018;38.982;2022-09-03T04:01:14;22.95;42.11
64743;HTU21D;51177;45.018;38.982;2022-09-03T04:03:42;22.85;42.62
64743;HTU21D;51177;45.018;38.982;2022-09-03T04:06:08;22.79;42.19
64743;HTU21D;51177;45.018;38.982;2022-09-03T04:08:39;22.84;42.20
64743;HTU21D;51177;45.018;38.982;2022-09-03T04:11:06;22.82;42.53
64743;HTU21D;51177;45.018;38.982;2022-09-03T04:13:34;22.80;42.16
64743;HTU21D;51177;45.018;38.982;2022-09-03T04:16:03;22.83;42.87
64743;HTU21D;51177;45.018;38.982;2022-09-03T04:18:30;22.84;42.47
64743;HTU21D;51177;45.018;38.982;2022-09-03T04:21:03;23.11;42.39
64743;HTU21D;51177;45.018;38.982;2022-09-03T04:23:32;23.39;42.20
64743;HTU21D;51177;45.018;38.982;2022-09-03T04:25:58;23.74;41.99
64743;HTU21D;51177;45.018;38.982;2022-09-03T04:28:24;24.10;41.60
64743;HTU21D;51177;45.018;38.982;2022-09-03T04:30:51;24.44;41.25
64743;HTU21D;51177;45.018;38.982;2022-09-03T04:33:17;24.80;41.05
64743;HTU21D;51177;45.018;38.982;2022-09-03T04:35:43;25.15;40.30
64743;HTU21D;51177;45.018;38.982;2022-09-03T04:38:10;25.38;40.41
64743;HTU21D;51177;45.018;38.982;2022-09-03T04:40:36;25.72;40.09
64743;HTU21D;51177;45.018;38.982;2022-09-03T04:43:02;25.88;39.67
64743;HTU21D;51177;45.018;38.982;2022-09-03T04:45:29;26.15;39.33
64743;HTU21D;51177;45.018;38.982;2022-09-03T04:47:58;26.38;38.80
64743;HTU21D;51177;45.018;38.982;2022-09-03T04:50:25;26.61;38.65
64743;HTU21D;51177;45.018;38.982;2022-09-03T04:53:01;26.80;38.56
64743;HTU21D;51177;45.018;38.982;2022-09-03T04:55:32;27.08;37.51
64743;HTU21D;51177;45.018;38.982;2022-09-03T04:57:59;27.21;37.42
64743;HTU21D;51177;45.018;38.982;2022-09-03T05:00:25;27.36;37.41
64743;HTU21D;51177;45.018;38.982;2022-09-03T05:02:53;27.64;36.69
64743;HTU21D;51177;45.018;38.982;2022-09-03T05:05:19;27.76;36.68
64743;HTU21D;51177;45.018;38.982;2022-09-03T05:07:45;28.01;36.40
64743;HTU21D;51177;45.018;38.982;2022-09-03T05:10:12;28.18;35.75
64743;HTU21D;51177;45.018;38.982;2022-09-03T05:12:46;28.53;35.42
64743;HTU21D;51177;45.018;38.982;2022-09-03T05:15:12;28.82;34.57
64743;HTU21D;51177;45.018;38.982;2022-09-03T05:17:39;28.91;34.13
64743;HTU21D;51177;45.018;38.982;2022-09-03T05:20:05;29.05;33.87
64743;HTU21D;51177;45.018;38.982;2022-09-03T05:22:35;29.22;34.34
64743;HTU21D;51177;45.018;38.982;2022-09-03T05:25:01;29.61;34.05
64743;HTU21D;51177;45.018;38.982;2022-09-03T05:27:27;30.00;32.69
64743;HTU21D;51177;45.018;38.982;2022-09-03T05:29:53;30.12;33.48
64743;HTU21D;51177;45.018;38.982;2022-09-03T05:32:20;30.20;32.42
64743;HTU21D;51177;45.018;38.982;2022-09-03T05:34:46;30.44;32.99
64743;HTU21D;51177;45.018;38.982;2022-09-03T05:37:12;30.76;32.82
64743;HTU21D;51177;45.018;38.982;2022-09-03T05:39:38;31.04;31.91
64743;HTU21D;51177;45.018;38.982;2022-09-03T05:42:04;31.38;32.01
64743;HTU21D;51177;45.018;38.982;2022-09-03T05:44:34;31.67;31.57
64743;HTU21D;51177;45.018;38.982;2022-09-03T05:47:01;31.88;30.86
64743;HTU21D;51177;45.018;38.982;2022-09-03T05:49:28;31.83;30.82
64743;HTU21D;51177;45.018;38.982;2022-09-03T05:51:55;31.93;29.96
64743;HTU21D;51177;45.018;38.982;2022-09-03T05:54:21;31.83;30.01
64743;HTU21D;51177;45.018;38.982;2022-09-03T05:56:47;31.89;29.86
64743;HTU21D;51177;45.018;38.982;2022-09-03T05:59:13;31.83;29.65
64743;HTU21D;51177;45.018;38.982;2022-09-03T06:01:40;31.96;30.28
64743;HTU21D;51177;45.018;38.982;2022-09-03T06:04:13;32.26;29.98
64743;HTU21D;51177;45.018;38.982;2022-09-03T06:06:40;32.48;29.20
64743;HTU21D;51177;45.018;38.982;2022-09-03T06:09:07;32.41;29.76
64743;HTU21D;51177;45.018;38.982;2022-09-03T06:11:34;32.55;28.45
64743;HTU21D;51177;45.018;38.982;2022-09-03T06:14:01;32.59;28.55
64743;HTU21D;51177;45.018;38.982;2022-09-03T06:16:29;32.48;28.66
64743;HTU21D;51177;45.018;38.982;2022-09-03T06:18:56;32.50;28.81
64743;HTU21D;51177;45.018;38.982;2022-09-03T06:21:22;32.69;29.08
64743;HTU21D;51177;45.018;38.982;2022-09-03T06:23:48;32.78;29.08
64743;HTU21D;51177;45.018;38.982;2022-09-03T06:26:16;32.87;27.75
64743;HTU21D;51177;45.018;38.982;2022-09-03T06:28:42;32.68;28.54
64743;HTU21D;51177;45.018;38.982;2022-09-03T06:31:12;32.83;28.83
64743;HTU21D;51177;45.018;38.982;2022-09-03T06:33:39;33.26;28.04
64743;HTU21D;51177;45.018;38.982;2022-09-03T06:36:05;33.43;27.87
64743;HTU21D;51177;45.018;38.982;2022-09-03T06:38:33;33.29;27.73
64743;HTU21D;51177;45.018;38.982;2022-09-03T06:41:06;33.53;27.46
64743;HTU21D;51177;45.018;38.982;2022-09-03T06:43:37;33.66;27.42
64743;HTU21D;51177;45.018;38.982;2022-09-03T06:46:24;33.53;27.49
64743;HTU21D;51177;45.018;38.982;2022-09-03T06:48:49;33.47;28.04
64743;HTU21D;51177;45.018;38.982;2022-09-03T06:51:17;33.37;27.86
64743;HTU21D;51177;45.018;38.982;2022-09-03T06:53:44;33.55;27.99
64743;HTU21D;51177;45.018;38.982;2022-09-03T06:56:12;33.65;27.38
64743;HTU21D;51177;45.018;38.982;2022-09-03T06:58:40;33.62;27.86
64743;HTU21D;51177;45.018;38.982;2022-09-03T07:01:10;33.53;27.54
64743;HTU21D;51177;45.018;38.982;2022-09-03T07:03:38;33.80;27.46
64743;HTU21D;51177;45.018;38.982;2022-09-03T07:06:08;34.11;27.35
64743;HTU21D;51177;45.018;38.982;2022-09-03T07:08:34;34.22;27.38
64743;HTU21D;51177;45.018;38.982;2022-09-03T07:11:01;34.39;27.07
64743;HTU21D;51177;45.018;38.982;2022-09-03T07:13:38;34.27;26.81
64743;HTU21D;51177;45.018;38.982;2022-09-03T07:16:08;34.32;26.01
64743;HTU21D;51177;45.018;38.982;2022-09-03T07:18:35;34.31;26.83
64743;HTU21D;51177;45.018;38.982;2022-09-03T07:21:03;34.45;26.74
64743;HTU21D;51177;45.018;38.982;2022-09-03T07:23:29;34.92;26.66
64743;HTU21D;51177;45.018;38.982;2022-09-03T07:25:57;35.23;26.00
64743;HTU21D;51177;45.018;38.982;2022-09-03T07:28:24;35.40;25.88
64743;HTU21D;51177;45.018;38.982;2022-09-03T07:30:50;35.19;25.64
64743;HTU21D;51177;45.018;38.982;2022-09-03T07:33:16;34.81;26.59
64743;HTU21D;51177;45.018;38.982;2022-09-03T07:35:44;34.78;26.75
64743;HTU21D;51177;45.018;38.982;2022-09-03T07:38:17;34.59;26.39
64743;HTU21D;51177;45.018;38.982;2022-09-03T07:40:44;34.66;26.84
64743;HTU21D;51177;45.018;38.982;2022-09-03T07:43:11;34.67;26.71
64743;HTU21D;51177;45.018;38.982;2022-09-03T07:45:38;34.44;26.44
64743;HTU21D;51177;45.018;38.982;2022-09-03T07:48:04;34.27;26.92
64743;HTU21D;51177;45.018;38.982;2022-09-03T07:50:30;34.34;26.64
64743;HTU21D;51177;45.018;38.982;2022-09-03T07:53:02;34.12;27.04
64743;HTU21D;51177;45.018;38.982;2022-09-03T07:55:28;34.33;27.03
64743;HTU21D;51177;45.018;38.982;2022-09-03T07:57:56;34.60;26.85
64743;HTU21D;51177;45.018;38.982;2022-09-03T08:00:24;34.71;26.58
64743;HTU21D;51177;45.018;38.982;2022-09-03T08:02:50;34.79;26.69
64743;HTU21D;51177;45.018;38.982;2022-09-03T08:05:17;34.93;26.14
64743;HTU21D;51177;45.018;38.982;2022-09-03T08:07:46;34.92;26.46
64743;HTU21D;51177;45.018;38.982;2022-09-03T08:10:13;34.90;26.26
64743;HTU21D;51177;45.018;38.982;2022-09-03T08:12:39;35.05;26.30
64743;HTU21D;51177;45.018;38.982;2022-09-03T08:15:05;35.19;26.01
64743;HTU21D;51177;45.018;38.982;2022-09-03T08:17:35;35.08;26.17
64743;HTU21D;51177;45.018;38.982;2022-09-03T08:20:02;35.15;26.33
64743;HTU21D;51177;45.018;38.982;2022-09-03T08:22:28;35.16;26.02
64743;HTU21D;51177;45.018;38.982;2022-09-03T08:24:54;35.14;26.08
64743;HTU21D;51177;45.018;38.982;2022-09-03T08:27:20;35.06;26.08
64743;HTU21D;51177;45.018;38.982;2022-09-03T08:29:49;35.14;26.22
64743;HTU21D;51177;45.018;38.982;2022-09-03T08:32:15;35.21;25.89
64743;HTU21D;51177;45.018;38.982;2022-09-03T08:34:42;35.25;26.03
64743;HTU21D;51177;45.018;38.982;2022-09-03T08:37:08;35.20;26.14
64743;HTU21D;51177;45.018;38.982;2022-09-03T08:39:35;35.18;26.18
64743;HTU21D;51177;45.018;38.982;2022-09-03T08:42:04;34.96;26.10
64743;HTU21D;51177;45.018;38.982;2022-09-03T08:44:55;34.33;26.84
64743;HTU21D;51177;45.018;38.982;2022-09-03T08:50:30;33.64;28.24
64743;HTU21D;51177;45.018;38.982;2022-09-03T08:52:59;33.60;28.46
64743;HTU21D;51177;45.018;38.982;2022-09-03T09:00:22;33.01;29.30
64743;HTU21D;51177;45.018;38.982;2022-09-03T09:05:24;32.73;29.76
64743;HTU21D;51177;45.018;38.982;2022-09-03T09:10:31;32.45;30.24
64743;HTU21D;51177;45.018;38.982;2022-09-03T09:23:14;32.27;30.86
64743;HTU21D;51177;45.018;38.982;2022-09-03T09:25:46;32.25;31.24
64743;HTU21D;51177;45.018;38.982;2022-09-03T09:30:38;32.16;31.24
64743;HTU21D;51177;45.018;38.982;2022-09-03T09:33:05;31.96;31.61
64743;HTU21D;51177;45.018;38.982;2022-09-03T09:35:31;31.84;32.00
64743;HTU21D;51177;45.018;38.982;2022-09-03T09:37:57;31.68;32.33
64743;HTU21D;51177;45.018;38.982;2022-09-03T09:40:33;31.58;32.28
64743;HTU21D;51177;45.018;38.982;2022-09-03T09:43:03;31.58;32.39
64743;HTU21D;51177;45.018;38.982;2022-09-03T09:45:29;31.59;32.32
64743;HTU21D;51177;45.018;38.982;2022-09-03T09:47:58;31.68;32.22
64743;HTU21D;51177;45.018;38.982;2022-09-03T09:50:25;31.76;32.24
64743;HTU21D;51177;45.018;38.982;2022-09-03T09:53:06;31.74;32.69
64743;HTU21D;51177;45.018;38.982;2022-09-03T09:55:49;31.72;32.40
64743;HTU21D;51177;45.018;38.982;2022-09-03T09:58:17;31.74;32.73
64743;HTU21D;51177;45.018;38.982;2022-09-03T10:00:53;31.70;32.67
64743;HTU21D;51177;45.018;38.982;2022-09-03T10:03:20;31.70;32.86
64743;HTU21D;51177;45.018;38.982;2022-09-03T10:05:54;31.65;33.12
64743;HTU21D;51177;45.018;38.982;2022-09-03T10:08:24;31.61;33.22
64743;HTU21D;51177;45.018;38.982;2022-09-03T10:10:50;31.59;33.12
64743;HTU21D;51177;45.018;38.982;2022-09-03T10:13:29;31.67;32.96
64743;HTU21D;51177;45.018;38.982;2022-09-03T10:16:07;31.71;33.67
64743;HTU21D;51177;45.018;38.982;2022-09-03T10:23:31;31.54;34.11
64743;HTU21D;51177;45.018;38.982;2022-09-03T10:28:35;31.61;33.78
64743;HTU21D;51177;45.018;38.982;2022-09-03T10:31:28;31.68;33.66
64743;HTU21D;51177;45.018;38.982;2022-09-03T10:42:01;31.92;33.63
64743;HTU21D;51177;45.018;38.982;2022-09-03T10:44:52;31.98;33.59
64743;HTU21D;51177;45.018;38.982;2022-09-03T10:50:08;31.90;33.96
64743;HTU21D;51177;45.018;38.982;2022-09-03T10:58:47;32.01;33.65
64743;HTU21D;51177;45.018;38.982;2022-09-03T11:04:06;32.14;33.65
64743;HTU21D;51177;45.018;38.982;2022-09-03T11:06:42;32.20;33.65
64743;HTU21D;51177;45.018;38.982;2022-09-03T11:11:57;32.19;33.89
64743;HTU21D;51177;45.018;38.982;2022-09-03T11:14:43;32.22;34.04
64743;HTU21D;51177;45.018;38.982;2022-09-03T11:19:45;32.19;34.08
64743;HTU21D;51177;45.018;38.982;2022-09-03T11:22:12;32.29;33.99
64743;HTU21D;51177;45.018;38.982;2022-09-03T11:24:40;32.38;33.88
64743;HTU21D;51177;45.018;38.982;2022-09-03T11:29:43;32.46;34.34
64743;HTU21D;51177;45.018;38.982;2022-09-03T11:32:19;32.37;34.66
64743;HTU21D;51177;45.018;38.982;2022-09-03T11:34:48;32.30;34.34
64743;HTU21D;51177;45.018;38.982;2022-09-03T11:37:18;32.32;35.05
64743;HTU21D;51177;45.018;38.982;2022-09-03T11:42:36;32.33;34.83
64743;HTU21D;51177;45.018;38.982;2022-09-03T11:47:44;32.29;35.18
64743;HTU21D;51177;45.018;38.982;2022-09-03T11:50:30;32.26;34.99
64743;HTU21D;51177;45.018;38.982;2022-09-03T11:53:20;32.31;35.08
64743;HTU21D;51177;45.018;38.982;2022-09-03T11:55:53;32.37;35.50
64743;HTU21D;51177;45.018;38.982;2022-09-03T12:00:51;32.53;35.95
64743;HTU21D;51177;45.018;38.982;2022-09-03T12:03:27;32.54;35.04
64743;HTU21D;51177;45.018;38.982;2022-09-03T12:13:53;32.54;35.56
64743;HTU21D;51177;45.018;38.982;2022-09-03T12:16:29;32.54;35.65
64743;HTU21D;51177;45.018;38.982;2022-09-03T12:19:00;32.56;35.46
64743;HTU21D;51177;45.018;38.982;2022-09-03T12:21:28;32.60;35.36
64743;HTU21D;51177;45.018;38.982;2022-09-03T12:23:55;32.66;35.25
64743;HTU21D;51177;45.018;38.982;2022-09-03T12:26:22;32.70;35.18
64743;HTU21D;51177;45.018;38.982;2022-09-03T12:28:50;32.72;35.15
64743;HTU21D;51177;45.018;38.982;2022-09-03T12:31:21;32.77;35.18
64743;HTU21D;51177;45.018;38.982;2022-09-03T12:33:49;32.79;35.61
64743;HTU21D;51177;45.018;38.982;2022-09-03T12:36:16;32.76;35.34
64743;HTU21D;51177;45.018;38.982;2022-09-03T12:38:42;32.82;36.30
64743;HTU21D;51177;45.018;38.982;2022-09-03T12:41:22;32.82;35.54
64743;HTU21D;51177;45.018;38.982;2022-09-03T12:43:52;32.83;35.75
64743;HTU21D;51177;45.018;38.982;2022-09-03T12:46:21;32.83;35.66
64743;HTU21D;51177;45.018;38.982;2022-09-03T12:49:04;32.85;35.60
64743;HTU21D;51177;45.018;38.982;2022-09-03T12:51:37;32.85;36.21
64743;HTU21D;51177;45.018;38.982;2022-09-03T12:54:03;32.81;35.84
64743;HTU21D;51177;45.018;38.982;2022-09-03T12:56:32;32.78;36.05
64743;HTU21D;51177;45.018;38.982;2022-09-03T12:59:05;32.74;35.84
64743;HTU21D;51177;45.018;38.982;2022-09-03T13:01:34;32.75;36.21
64743;HTU21D;51177;45.018;38.982;2022-09-03T13:04:11;32.71;35.92
64743;HTU21D;51177;45.018;38.982;2022-09-03T13:07:01;32.71;35.89
64743;HTU21D;51177;45.018;38.982;2022-09-03T13:09:28;32.70;35.98
64743;HTU21D;51177;45.018;38.982;2022-09-03T13:11:55;32.73;35.92
64743;HTU21D;51177;45.018;38.982;2022-09-03T13:14:26;32.69;35.94
64743;HTU21D;51177;45.018;38.982;2022-09-03T13:17:28;32.71;36.31
64743;HTU21D;51177;45.018;38.982;2022-09-03T13:19:50;32.64;36.01
64743;HTU21D;51177;45.018;38.982;2022-09-03T13:22:26;32.62;36.07
64743;HTU21D;51177;45.018;38.982;2022-09-03T13:25:03;32.63;35.99
64743;HTU21D;51177;45.018;38.982;2022-09-03T13:27:41;32.67;35.92
64743;HTU21D;51177;45.018;38.982;2022-09-03T13:32:43;32.64;35.98
64743;HTU21D;51177;45.018;38.982;2022-09-03T13:38:08;32.62;36.03
64743;HTU21D;51177;45.018;38.982;2022-09-03T13:40:41;32.58;36.02
64743;HTU21D;51177;45.018;38.982;2022-09-03T13:45:44;32.52;36.00
64743;HTU21D;51177;45.018;38.982;2022-09-03T13:48:15;32.52;36.07
64743;HTU21D;51177;45.018;38.982;2022-09-03T13:51:02;32.47;36.01
64743;HTU21D;51177;45.018;38.982;2022-09-03T13:53:43;32.46;36.04
64743;HTU21D;51177;45.018;38.982;2022-09-03T13:56:15;32.43;36.14
64743;HTU21D;51177;45.018;38.982;2022-09-03T13:58:45;32.41;36.85
64743;HTU21D;51177;45.018;38.982;2022-09-03T14:01:16;32.34;36.40
64743;HTU21D;51177;45.018;38.982;2022-09-03T14:03:52;32.30;36.50
64743;HTU21D;51177;45.018;38.982;2022-09-03T14:14:17;32.22;36.43
64743;HTU21D;51177;45.018;38.982;2022-09-03T14:17:07;32.20;36.35
64743;HTU21D;51177;45.018;38.982;2022-09-03T14:19:50;32.16;36.30
64743;HTU21D;51177;45.018;38.982;2022-09-03T14:22:20;32.13;35.79
64743;HTU21D;51177;45.018;38.982;2022-09-03T14:25:00;32.14;35.99
64743;HTU21D;51177;45.018;38.982;2022-09-03T14:27:28;32.13;36.01
64743;HTU21D;51177;45.018;38.982;2022-09-03T14:29:59;32.10;35.75
64743;HTU21D;51177;45.018;38.982;2022-09-03T14:32:29;32.05;35.88
64743;HTU21D;51177;45.018;38.982;2022-09-03T14:35:21;32.02;35.92
64743;HTU21D;51177;45.018;38.982;2022-09-03T14:40:51;31.95;35.63
64743;HTU21D;51177;45.018;38.982;2022-09-03T14:45:51;31.87;35.08
64743;HTU21D;51177;45.018;38.982;2022-09-03T14:48:36;31.83;35.56
64743;HTU21D;51177;45.018;38.982;2022-09-03T14:51:12;31.78;35.42
64743;HTU21D;51177;45.018;38.982;2022-09-03T15:50:09;30.51;35.51
64743;HTU21D;51177;45.018;38.982;2022-09-03T15:52:49;30.47;35.53
64743;HTU21D;51177;45.018;38.982;2022-09-03T15:55:34;30.39;35.60
64743;HTU21D;51177;45.018;38.982;2022-09-03T15:58:05;30.32;35.69
64743;HTU21D;51177;45.018;38.982;2022-09-03T16:00:49;30.25;35.77
64743;HTU21D;51177;45.018;38.982;2022-09-03T16:03:19;30.19;35.85
64743;HTU21D;51177;45.018;38.982;2022-09-03T16:06:06;30.13;35.92
64743;HTU21D;51177;45.018;38.982;2022-09-03T16:08:39;30.07;35.96
64743;HTU21D;51177;45.018;38.982;2022-09-03T16:16:27;29.95;36.08
64743;HTU21D;51177;45.018;38.982;2022-09-03T16:19:08;29.92;36.11
64743;HTU21D;51177;45.018;38.982;2022-09-03T16:21:38;29.87;36.14
64743;HTU21D;51177;45.018;38.982;2022-09-03T16:27:08;29.77;36.23
64743;HTU21D;51177;45.018;38.982;2022-09-03T16:29:35;29.72;36.28
64743;HTU21D;51177;45.018;38.982;2022-09-03T16:34:55;29.63;36.37
64743;HTU21D;51177;45.018;38.982;2022-09-03T16:37:39;29.58;36.42
64743;HTU21D;51177;45.018;38.982;2022-09-03T16:42:43;29.49;36.47
64743;HTU21D;51177;45.018;38.982;2022-09-03T16:47:47;29.42;36.53
64743;HTU21D;51177;45.018;38.982;2022-09-03T16:50:25;29.37;36.56
64743;HTU21D;51177;45.018;38.982;2022-09-03T16:53:01;29.32;36.59
64743;HTU21D;51177;45.018;38.982;2022-09-03T17:11:58;29.03;36.79
64743;HTU21D;51177;45.018;38.982;2022-09-03T17:14:19;29.00;36.82
64743;HTU21D;51177;45.018;38.982;2022-09-03T17:24:55;28.83;36.92
64743;HTU21D;51177;45.018;38.982;2022-09-03T17:27:37;28.78;36.94
64743;HTU21D;51177;45.018;38.982;2022-09-03T17:45:36;28.59;37.05
64743;HTU21D;51177;45.018;38.982;2022-09-03T17:50:33;28.55;37.06
64743;HTU21D;51177;45.018;38.982;2022-09-03T17:53:16;28.53;37.08
64743;HTU21D;51177;45.018;38.982;2022-09-03T17:55:44;28.49;37.11
64743;HTU21D;51177;45.018;38.982;2022-09-03T17:58:18;28.44;37.16
64743;HTU21D;51177;45.018;38.982;2022-09-03T18:00:53;28.40;37.20
64743;HTU21D;51177;45.018;38.982;2022-09-03T18:03:32;28.38;37.21
64743;HTU21D;51177;45.018;38.982;2022-09-03T18:16:58;28.25;37.33
64743;HTU21D;51177;45.018;38.982;2022-09-03T18:19:43;28.20;37.33
64743;HTU21D;51177;45.018;38.982;2022-09-03T18:22:41;28.16;37.37
64743;HTU21D;51177;45.018;38.982;2022-09-03T18:25:27;28.10;37.43
64743;HTU21D;51177;45.018;38.982;2022-09-03T18:28:13;28.05;37.47
64743;HTU21D;51177;45.018;38.982;2022-09-03T18:31:00;28.00;37.50
64743;HTU21D;51177;45.018;38.982;2022-09-03T18:33:44;28.00;37.50
64743;HTU21D;51177;45.018;38.982;2022-09-03T18:36:29;27.97;37.51
64743;HTU21D;51177;45.018;38.982;2022-09-03T18:39:15;27.94;37.52
64743;HTU21D;51177;45.018;38.982;2022-09-03T18:42:28;27.90;37.54
64743;HTU21D;51177;45.018;38.982;2022-09-03T18:45:20;27.84;37.59
64743;HTU21D;51177;45.018;38.982;2022-09-03T18:56:49;27.69;37.72
64743;HTU21D;51177;45.018;38.982;2022-09-03T19:00:00;27.67;37.73
64743;HTU21D;51177;45.018;38.982;2022-09-03T19:03:08;27.65;37.76
64743;HTU21D;51177;45.018;38.982;2022-09-03T19:06:04;27.61;37.77
64743;HTU21D;51177;45.018;38.982;2022-09-03T19:11:39;27.56;37.83
64743;HTU21D;51177;45.018;38.982;2022-09-03T19:17:14;27.52;37.88
64743;HTU21D;51177;45.018;38.982;2022-09-03T19:20:11;27.52;37.88
64743;HTU21D;51177;45.018;38.982;2022-09-03T19:22:59;27.51;37.88
64743;HTU21D;51177;45.018;38.982;2022-09-03T19:25:45;27.49;37.92
64743;HTU21D;51177;45.018;38.982;2022-09-03T19:28:30;27.45;37.96
64743;HTU21D;51177;45.018;38.982;2022-09-03T19:34:35;27.45;37.93
64743;HTU21D;51177;45.018;38.982;2022-09-03T19:43:28;27.43;37.93
64743;HTU21D;51177;45.018;38.982;2022-09-03T19:54:52;27.47;37.76
64743;HTU21D;51177;45.018;38.982;2022-09-03T19:57:39;27.45;37.78
64743;HTU21D;51177;45.018;38.982;2022-09-03T20:00:25;27.45;37.69
64743;HTU21D;51177;45.018;38.982;2022-09-03T20:03:10;27.44;37.69
64743;HTU21D;51177;45.018;38.982;2022-09-03T20:05:56;27.45;37.63
64743;HTU21D;51177;45.018;38.982;2022-09-03T20:08:41;27.43;37.63
64743;HTU21D;51177;45.018;38.982;2022-09-03T20:11:25;27.39;37.69
64743;HTU21D;51177;45.018;38.982;2022-09-03T20:13:53;27.35;37.69
64743;HTU21D;51177;45.018;38.982;2022-09-03T20:16:48;27.29;37.72
64743;HTU21D;51177;45.018;38.982;2022-09-03T20:24:37;27.06;37.91
64743;HTU21D;51177;45.018;38.982;2022-09-03T20:37:10;26.86;37.94
64743;HTU21D;51177;45.018;38.982;2022-09-03T20:47:48;26.66;38.06
64743;HTU21D;51177;45.018;38.982;2022-09-03T20:55:51;26.58;38.04
64743;HTU21D;51177;45.018;38.982;2022-09-03T21:01:07;26.50;38.11
64743;HTU21D;51177;45.018;38.982;2022-09-03T21:03:36;26.43;38.14
64743;HTU21D;51177;45.018;38.982;2022-09-03T21:08:43;26.33;38.20